createdAt,value
2019-03-05T10:34:58.212Z,99134
2019-03-05T10:35:06.414Z,99133
2019-03-05T10:35:14.343Z,99124
2019-03-05T10:35:22.873Z,99135
2019-03-05T10:35:31.118Z,99131
2019-03-05T10:35:56.210Z,99127
2019-03-05T10:36:02.347Z,99129
2019-03-05T10:36:28.824Z,99129
2019-03-05T10:36:37.198Z,99134
2019-03-05T10:36:43.269Z,99133
2019-03-05T10:36:49.368Z,99131
2019-03-05T10:36:58.212Z,99130
2019-03-05T10:37:12.531Z,99137
2019-03-05T10:37:18.686Z,99134
2019-03-05T10:37:19.940Z,99147
2019-03-05T10:37:25.960Z,99133
2019-03-05T10:37:31.773Z,99135
2019-03-05T10:37:37.672Z,99142
2019-03-05T10:37:43.621Z,99136
2019-03-05T10:37:51.621Z,99144
2019-03-05T10:37:59.040Z,99141
2019-03-05T10:38:10.585Z,99138
2019-03-05T10:38:20.538Z,99138
2019-03-05T10:38:33.302Z,99143
2019-03-05T10:38:40.848Z,99141
2019-03-05T10:38:56.791Z,99141
2019-03-05T10:38:57.465Z,99140
2019-03-05T10:39:03.257Z,99148
2019-03-05T10:39:09.446Z,99138
2019-03-05T10:39:29.837Z,99128
2019-03-05T10:39:30.236Z,99140
2019-03-05T10:39:33.465Z,99138
2019-03-05T10:39:41.572Z,99132
2019-03-05T10:39:49.830Z,99133
2019-03-05T10:39:55.870Z,99137
2019-03-05T10:40:04.528Z,99153
2019-03-05T10:40:10.707Z,99135
2019-03-05T10:40:21.378Z,99135
2019-03-05T10:40:31.218Z,99131
2019-03-05T10:40:39.753Z,99152
2019-03-05T10:40:48.764Z,99130
2019-03-05T10:40:57.442Z,99135
2019-03-05T10:41:07.821Z,99140
2019-03-05T10:41:14.076Z,99141
2019-03-05T10:41:19.835Z,99143
2019-03-05T10:41:27.901Z,99135
2019-03-05T10:41:33.722Z,99131
2019-03-05T10:41:39.532Z,99126
2019-03-05T10:41:45.304Z,99133
2019-03-05T10:41:51.103Z,99133
2019-03-05T10:41:59.255Z,99140
2019-03-05T10:42:07.583Z,99136
2019-03-05T10:42:13.406Z,99130
2019-03-05T10:42:19.203Z,99129
2019-03-05T10:42:25.004Z,99142
2019-03-05T10:42:31.811Z,99143
2019-03-05T10:42:37.793Z,99138
2019-03-05T10:42:43.604Z,99132
2019-03-05T10:42:49.394Z,99133
2019-03-05T10:42:55.164Z,99139
2019-03-05T10:43:08.269Z,99140
2019-03-05T10:43:08.960Z,99139
2019-03-05T10:43:18.801Z,99138
2019-03-05T10:43:26.980Z,99135
2019-03-05T10:43:37.460Z,99136
2019-03-05T10:43:47.376Z,99134
2019-03-05T10:43:57.666Z,99137
2019-03-05T10:44:07.268Z,99137
2019-03-05T10:44:18.766Z,99139
2019-03-05T10:44:26.702Z,99139
2019-03-05T10:44:35.908Z,99141
2019-03-05T10:44:46.345Z,99142
2019-03-05T10:44:57.076Z,99139
2019-03-05T10:45:03.007Z,99140
2019-03-05T10:45:11.010Z,99128
2019-03-05T10:45:19.086Z,99129
2019-03-05T10:45:30.266Z,99136
2019-03-05T10:45:38.189Z,99143
2019-03-05T10:45:48.986Z,99142
2019-03-05T10:45:56.999Z,99145
2019-03-05T10:46:07.587Z,99142
2019-03-05T10:46:15.542Z,99143
2019-03-05T10:46:23.712Z,99143
2019-03-05T10:46:31.850Z,99141
2019-03-05T10:46:40.243Z,99149
2019-03-05T10:46:48.317Z,99149
2019-03-05T10:46:56.330Z,99150
2019-03-05T10:47:06.746Z,99148
2019-03-05T10:47:12.956Z,99148
2019-03-05T10:47:23.002Z,99151
2019-03-05T10:47:31.094Z,99146
2019-03-05T10:47:39.303Z,99145
2019-03-05T10:47:47.809Z,99144
2019-03-05T10:47:56.183Z,99153
2019-03-05T10:48:04.409Z,99152
2019-03-05T10:48:12.706Z,99138
2019-03-05T10:48:21.347Z,99149
2019-03-05T10:48:30.446Z,99146
2019-03-05T10:48:37.636Z,99146
2019-03-05T10:48:46.162Z,99146
2019-03-05T10:48:54.195Z,99150
2019-03-05T10:49:00.434Z,99148
2019-03-05T10:49:10.824Z,99153
2019-03-05T10:49:18.662Z,99150
2019-03-05T10:49:24.482Z,99147
2019-03-05T10:49:30.253Z,99145
2019-03-05T10:49:36.055Z,99147
2019-03-05T10:49:41.843Z,99153
2019-03-05T10:49:47.634Z,99151
2019-03-05T10:49:53.523Z,99152
2019-03-05T10:49:59.556Z,99153
2019-03-05T10:50:14.971Z,99158
2019-03-05T10:50:15.409Z,99157
2019-03-05T10:50:19.084Z,99147
2019-03-05T10:50:24.867Z,99140
2019-03-05T10:50:30.662Z,99144
2019-03-05T10:50:40.530Z,99144
